Texline, Texas
Current Conditions -  °F | °C
As of 4:55 PM on Tuesday 21 Oct 2014 (Local Time) from KCAO Reporting Station
Scattered Clouds Scattered Clouds  
Wind Chill: 21°   Ceiling: Unl
Heat Index: 21°   Visibility: 10mi
Dew Point:   Wind: 20mph
Humidity: 42%   Direction: 200°SSW
Pressure: 30.06"   Gusts: 26mph
Location:  36.38°N, 103.02°W
Report Text: KCAO 212155Z AUTO 20017G23KT 10SM SCT047 21/08 A3006 RMK AO2 SLP134 T02110078
Loading
Personal Weather Stations






























Interactive Weather Map
Tropical Storm Tracking
New forecast layout! Learn more

10-Day Weather Forecast

Advertisements
Track Severe Weather on mobile